createdAt,value
2023-01-31T00:00:10.767Z,19.10
2023-01-31T00:05:13.479Z,18.77
2023-01-31T00:10:17.031Z,18.13
2023-01-31T00:15:20.453Z,18.58
2023-01-31T00:20:23.676Z,17.48
2023-01-31T00:25:27.054Z,18.83
2023-01-31T00:30:30.086Z,20.17
2023-01-31T00:35:33.057Z,19.98
2023-01-31T00:40:36.379Z,20.73
2023-01-31T00:45:39.275Z,19.45
2023-01-31T00:50:42.386Z,17.67
2023-01-31T00:55:54.337Z,18.95
2023-01-31T01:00:57.694Z,18.13
2023-01-31T01:16:40.048Z,16.95
2023-01-31T01:26:47.954Z,17.42
2023-01-31T01:31:50.969Z,17.13
2023-01-31T01:36:53.997Z,17.02
2023-01-31T01:41:56.985Z,17.15
2023-01-31T01:47:02.487Z,16.88
2023-01-31T01:52:10.375Z,16.42
2023-01-31T01:57:17.259Z,16.05
2023-01-31T02:02:20.521Z,14.82
2023-01-31T02:07:25.675Z,15.57
2023-01-31T02:12:32.629Z,17.00
2023-01-31T02:17:35.579Z,17.90
2023-01-31T02:23:03.446Z,16.15
2023-01-31T02:28:34.833Z,16.67
2023-01-31T02:34:22.438Z,16.10
2023-01-31T02:39:35.247Z,16.20
2023-01-31T02:45:01.007Z,15.77
2023-01-31T02:50:31.441Z,16.20
2023-01-31T02:56:08.483Z,15.57
2023-01-31T03:01:17.956Z,15.38
2023-01-31T03:06:25.508Z,15.30
2023-01-31T03:12:06.791Z,15.77
2023-01-31T03:17:33.893Z,16.20
2023-01-31T03:22:42.734Z,15.98
2023-01-31T03:27:57.519Z,16.55
2023-01-31T03:33:11.107Z,16.83
2023-01-31T03:38:33.251Z,15.68
2023-01-31T03:43:59.070Z,16.42
2023-01-31T03:49:09.294Z,14.90
2023-01-31T03:54:28.363Z,16.50
2023-01-31T03:59:37.779Z,15.82
2023-01-31T04:04:53.322Z,15.90
2023-01-31T04:09:56.901Z,16.25
2023-01-31T04:15:00.137Z,14.93
2023-01-31T04:20:03.473Z,15.48
2023-01-31T04:25:08.271Z,15.38
2023-01-31T04:30:12.226Z,15.50
2023-01-31T04:35:15.129Z,15.52
2023-01-31T04:40:18.374Z,15.15
2023-01-31T04:45:21.612Z,15.63
2023-01-31T04:50:24.482Z,16.27
2023-01-31T04:55:28.253Z,14.70
2023-01-31T05:00:31.635Z,15.50
2023-01-31T05:05:36.328Z,14.98
2023-01-31T05:10:40.337Z,15.35
2023-01-31T05:15:43.298Z,15.90
2023-01-31T05:20:46.288Z,16.90
2023-01-31T05:25:51.216Z,17.13
2023-01-31T05:30:55.227Z,16.58
2023-01-31T05:35:58.923Z,14.93
2023-01-31T05:41:02.021Z,17.95
2023-01-31T05:46:05.275Z,16.85
2023-01-31T05:51:08.251Z,18.00
2023-01-31T05:56:11.229Z,16.77
2023-01-31T06:01:14.037Z,15.38
2023-01-31T06:06:17.879Z,15.45
2023-01-31T06:11:21.017Z,15.10
2023-01-31T06:16:25.272Z,14.82
2023-01-31T06:21:28.831Z,14.48
2023-01-31T06:26:32.019Z,14.90
2023-01-31T06:31:35.132Z,14.70
2023-01-31T06:36:38.209Z,15.85
2023-01-31T06:41:41.197Z,15.32
2023-01-31T06:46:44.246Z,14.65
2023-01-31T06:51:47.318Z,14.82
2023-01-31T06:56:50.457Z,15.85
2023-01-31T07:01:53.748Z,15.25
2023-01-31T07:06:57.826Z,15.77
2023-01-31T07:12:02.313Z,15.40
2023-01-31T07:17:05.488Z,16.63
2023-01-31T07:22:10.942Z,16.33
2023-01-31T07:27:14.631Z,15.80
2023-01-31T07:32:17.841Z,16.10
2023-01-31T07:37:20.775Z,17.05
2023-01-31T07:42:23.902Z,14.93
2023-01-31T07:47:26.969Z,16.17
2023-01-31T07:52:30.017Z,15.35
2023-01-31T07:57:33.122Z,14.57
2023-01-31T08:02:55.050Z,15.30
2023-01-31T08:08:10.715Z,15.77
2023-01-31T08:13:13.840Z,16.13
2023-01-31T08:18:16.812Z,15.57
2023-01-31T08:23:19.774Z,15.65
2023-01-31T08:28:24.312Z,14.32
2023-01-31T08:33:27.166Z,15.27
2023-01-31T08:38:30.362Z,13.95
2023-01-31T08:43:42.582Z,14.13
2023-01-31T08:48:56.288Z,15.50
2023-01-31T08:53:59.689Z,13.68
2023-01-31T08:59:02.914Z,13.55
2023-01-31T09:04:06.272Z,14.85
2023-01-31T09:09:29.900Z,15.23
2023-01-31T09:14:34.174Z,14.52
2023-01-31T09:19:38.705Z,14.85
2023-01-31T09:29:44.949Z,14.35
2023-01-31T09:34:49.657Z,13.70
2023-01-31T09:39:52.570Z,13.02
2023-01-31T09:45:07.466Z,14.40
2023-01-31T09:50:16.685Z,13.40
2023-01-31T09:55:49.384Z,12.57
2023-01-31T10:01:18.016Z,11.88
2023-01-31T10:06:25.808Z,11.95
2023-01-31T10:11:54.789Z,12.07
2023-01-31T10:17:06.715Z,11.93
2023-01-31T10:22:18.714Z,11.80
2023-01-31T10:27:38.038Z,13.43
2023-01-31T10:32:45.095Z,12.35
2023-01-31T10:37:52.239Z,10.85
2023-01-31T10:43:19.969Z,11.85
2023-01-31T10:48:26.854Z,12.68
2023-01-31T10:53:46.230Z,12.45
2023-01-31T10:58:52.446Z,12.85
2023-01-31T11:03:57.184Z,11.30
2023-01-31T11:09:01.723Z,13.52
2023-01-31T11:14:06.774Z,13.55
2023-01-31T11:19:27.609Z,13.10
2023-01-31T11:24:38.347Z,13.65
2023-01-31T11:35:23.366Z,13.13
2023-01-31T11:40:41.214Z,13.02
2023-01-31T11:45:47.141Z,13.15
2023-01-31T11:51:02.127Z,12.60
2023-01-31T11:56:19.416Z,12.32
2023-01-31T12:01:28.629Z,12.00
2023-01-31T12:06:40.641Z,12.35
2023-01-31T12:11:55.682Z,12.15
2023-01-31T12:17:04.781Z,12.88
2023-01-31T12:22:31.105Z,11.52
2023-01-31T12:28:01.875Z,12.23
2023-01-31T12:33:29.626Z,12.20
2023-01-31T12:38:41.779Z,12.30
2023-01-31T12:44:22.197Z,13.25
2023-01-31T12:49:53.145Z,15.70
2023-01-31T12:55:02.049Z,12.32
2023-01-31T13:00:45.715Z,13.30
2023-01-31T13:05:50.878Z,13.07
2023-01-31T13:10:58.912Z,13.38
2023-01-31T13:16:05.473Z,14.00
2023-01-31T13:21:13.989Z,14.30
2023-01-31T13:26:32.356Z,14.93
2023-01-31T13:31:45.468Z,15.98
2023-01-31T13:37:10.691Z,14.98
2023-01-31T13:42:18.467Z,15.45
2023-01-31T13:47:29.071Z,14.85
2023-01-31T13:52:40.442Z,14.93
2023-01-31T13:57:53.630Z,14.57
2023-01-31T14:03:05.678Z,15.52
2023-01-31T14:08:32.007Z,16.33
2023-01-31T14:13:35.358Z,16.88
2023-01-31T14:18:46.265Z,16.48
2023-01-31T14:23:49.170Z,16.45
2023-01-31T14:28:52.357Z,15.82
2023-01-31T14:33:57.811Z,14.60
2023-01-31T14:39:17.157Z,15.93
2023-01-31T14:44:35.549Z,15.50
2023-01-31T14:50:02.812Z,13.90
2023-01-31T14:55:24.210Z,16.58
2023-01-31T15:00:32.589Z,14.32
2023-01-31T15:05:36.342Z,14.60
2023-01-31T15:11:41.069Z,13.85
2023-01-31T15:16:44.838Z,13.35
2023-01-31T15:21:51.468Z,14.35
2023-01-31T15:26:56.143Z,12.23
2023-01-31T15:32:12.805Z,12.63
2023-01-31T15:37:23.007Z,12.95
2023-01-31T15:42:31.407Z,12.25
2023-01-31T15:47:34.597Z,12.45
2023-01-31T15:52:37.658Z,11.60
2023-01-31T15:57:57.073Z,11.10
2023-01-31T16:03:01.218Z,11.20
2023-01-31T16:08:24.280Z,10.68
2023-01-31T16:13:28.189Z,10.05
2023-01-31T16:18:31.646Z,9.70
2023-01-31T16:23:38.159Z,9.40
2023-01-31T16:28:54.044Z,9.57
2023-01-31T16:34:00.441Z,9.50
2023-01-31T16:39:06.320Z,9.85
2023-01-31T16:44:17.077Z,9.35
2023-01-31T16:49:25.557Z,9.57
2023-01-31T16:54:33.601Z,9.60
2023-01-31T16:59:39.461Z,9.43
2023-01-31T17:04:43.531Z,9.82
2023-01-31T17:09:48.049Z,8.93
2023-01-31T17:14:57.475Z,7.90
2023-01-31T17:20:00.761Z,7.72
2023-01-31T17:25:04.773Z,8.93
2023-01-31T17:30:08.406Z,8.57
2023-01-31T17:35:29.412Z,9.90
2023-01-31T17:40:32.959Z,8.50
2023-01-31T17:45:38.435Z,9.02
2023-01-31T17:50:43.798Z,9.00
2023-01-31T17:55:46.929Z,8.38
2023-01-31T18:00:50.085Z,8.65
2023-01-31T18:05:53.870Z,8.93
2023-01-31T18:10:57.545Z,9.05
2023-01-31T18:16:15.884Z,8.68
2023-01-31T18:21:21.491Z,9.63
2023-01-31T18:26:25.526Z,8.05
2023-01-31T18:31:28.608Z,9.32
2023-01-31T18:36:31.860Z,8.85
2023-01-31T18:41:34.819Z,9.40
2023-01-31T18:46:38.780Z,8.63
2023-01-31T18:51:43.152Z,9.68
2023-01-31T18:56:45.942Z,10.02
2023-01-31T19:01:49.074Z,9.80
2023-01-31T19:06:53.183Z,9.82
2023-01-31T19:11:56.142Z,9.85
2023-01-31T19:16:59.862Z,9.88
2023-01-31T19:22:03.129Z,8.95
2023-01-31T19:27:06.131Z,9.63
2023-01-31T19:32:09.041Z,9.10
2023-01-31T19:37:12.003Z,10.23
2023-01-31T19:42:15.059Z,9.73
2023-01-31T19:47:18.788Z,10.13
2023-01-31T19:52:21.671Z,10.18
2023-01-31T19:57:24.607Z,10.57
2023-01-31T20:02:27.698Z,10.48
2023-01-31T20:07:30.869Z,9.50
2023-01-31T20:12:33.930Z,9.82
2023-01-31T20:17:36.908Z,10.43
2023-01-31T20:22:40.898Z,10.20
2023-01-31T20:27:44.071Z,11.25
2023-01-31T20:32:47.228Z,10.90
2023-01-31T20:37:49.984Z,11.00
2023-01-31T20:42:52.888Z,11.05
2023-01-31T20:47:57.131Z,10.70
2023-01-31T20:52:59.954Z,10.63
2023-01-31T20:58:03.022Z,11.13
2023-01-31T21:03:05.954Z,11.93
2023-01-31T21:08:08.942Z,11.40
2023-01-31T21:13:11.928Z,10.27
2023-01-31T21:18:14.848Z,12.55
2023-01-31T21:23:17.626Z,12.55
2023-01-31T21:28:21.058Z,12.70
2023-01-31T21:33:23.916Z,12.05
2023-01-31T21:38:27.419Z,12.73
2023-01-31T21:43:31.459Z,12.65
2023-01-31T21:48:34.385Z,13.45
2023-01-31T21:53:38.453Z,14.25
2023-01-31T21:58:41.717Z,12.93
2023-01-31T22:03:48.563Z,13.98
2023-01-31T22:08:56.235Z,13.95
2023-01-31T22:14:00.029Z,17.00
2023-01-31T22:19:04.097Z,15.75
2023-01-31T22:24:09.769Z,16.33
2023-01-31T22:29:15.839Z,18.20
2023-01-31T22:34:19.506Z,16.63
2023-01-31T22:39:22.469Z,16.27
2023-01-31T22:44:25.316Z,16.70
2023-01-31T22:49:28.402Z,16.52
2023-01-31T22:54:31.519Z,15.52
2023-01-31T22:59:34.365Z,14.57
2023-01-31T23:04:37.274Z,15.27
2023-01-31T23:09:40.387Z,13.93
2023-01-31T23:14:43.265Z,13.43
2023-01-31T23:19:46.442Z,10.45
2023-01-31T23:24:49.483Z,12.40
2023-01-31T23:29:52.730Z,11.18
2023-01-31T23:34:55.949Z,11.98
2023-01-31T23:39:59.036Z,11.85
2023-01-31T23:45:01.871Z,13.18
2023-01-31T23:50:06.272Z,15.52
2023-01-31T23:55:09.475Z,16.48
